Time;durP1;ratioP1;P1;durP2;ratioP2;P2;SDS_P1;SDS_P2;PMS_P1;PMS_P2;Temp;Humidity;BMP_temperature;BMP_pressure;BME280_temperature;BME280_humidity;BME280_pressure;Samples;Min_cycle;Max_cycle;Signal;HPM_P1;HPM_P2
2023/04/07 00:01:31;;;;;;;13.73;9.63;;;;;;;6.58;48.02;99892.72;5109151;28;20024;-40
2023/04/07 00:03:57;;;;;;;15.38;9.70;;;;;;;6.53;47.55;99893.28;5108864;28;20454;-40
2023/04/07 00:06:22;;;;;;;14.02;9.52;;;;;;;6.52;47.52;99893.47;5108438;28;20428;-40
2023/04/07 00:08:47;;;;;;;18.73;11.13;;;;;;;6.42;47.46;99899.97;5108892;28;20031;-40
2023/04/07 00:11:13;;;;;;;14.43;8.65;;;;;;;6.42;47.07;99904.44;5108446;28;20033;-39
2023/04/07 00:13:38;;;;;;;15.85;9.55;;;;;;;6.33;48.21;99909.06;5108646;27;20015;-40
2023/04/07 00:16:04;;;;;;;16.23;9.93;;;;;;;6.48;48.15;99900.19;5109067;28;20059;-42
2023/04/07 00:18:29;;;;;;;13.18;9.18;;;;;;;6.57;47.63;99901.66;5108111;27;20101;-41
2023/04/07 00:20:55;;;;;;;16.80;10.85;;;;;;;6.44;47.23;99886.53;5108551;27;20020;-39
2023/04/07 00:23:20;;;;;;;15.88;10.90;;;;;;;6.51;47.70;99905.91;5108635;28;20039;-40
2023/04/07 00:25:47;;;;;;;12.93;8.50;;;;;;;6.48;46.98;99892.22;5108112;28;20051;-39
2023/04/07 00:28:12;;;;;;;14.05;8.00;;;;;;;6.53;46.80;99901.22;5108323;27;20552;-38
2023/04/07 00:30:38;;;;;;;14.88;9.55;;;;;;;6.67;46.90;99902.13;5107928;28;20027;-39
2023/04/07 00:33:03;;;;;;;15.13;10.13;;;;;;;6.61;47.00;99895.78;5108103;28;20048;-39
2023/04/07 00:35:28;;;;;;;15.10;9.85;;;;;;;6.76;47.29;99900.94;5108100;28;20769;-41
2023/04/07 00:37:54;;;;;;;16.63;10.65;;;;;;;6.71;46.67;99897.25;5107681;28;20100;-39
2023/04/07 00:40:19;;;;;;;14.98;10.52;;;;;;;6.72;47.54;99905.00;5108439;28;20031;-39
2023/04/07 00:42:45;;;;;;;16.45;10.65;;;;;;;6.73;47.38;99909.28;5107966;28;20105;-40
2023/04/07 00:45:11;;;;;;;16.38;10.45;;;;;;;6.71;47.36;99902.53;5107768;28;20422;-42
2023/04/07 00:47:37;;;;;;;14.98;9.32;;;;;;;6.60;47.57;99906.59;5107860;28;20071;-40
2023/04/07 00:50:03;;;;;;;18.27;11.23;;;;;;;6.71;47.24;99906.00;5107552;27;20435;-41
2023/04/07 00:52:31;;;;;;;17.48;11.07;;;;;;;6.75;48.36;99904.59;5107935;28;20066;-42
2023/04/07 00:54:56;;;;;;;17.40;11.15;;;;;;;6.71;47.26;99913.97;5107335;28;20034;-40
2023/04/07 00:57:22;;;;;;;15.77;11.48;;;;;;;6.67;47.61;99907.41;5107602;28;20031;-42
2023/04/07 00:59:49;;;;;;;15.43;10.95;;;;;;;6.60;47.43;99890.69;5107360;28;20051;-39
2023/04/07 01:02:20;;;;;;;16.17;10.48;;;;;;;6.69;47.96;99904.59;5107292;28;20469;-40
2023/04/07 01:05:06;;;;;;;15.68;11.32;;;;;;;6.83;47.29;99895.66;5107064;28;20461;-40
2023/04/07 01:07:47;;;;;;;15.63;10.15;;;;;;;6.60;48.23;99880.09;5107070;28;20031;-41
2023/04/07 01:10:22;;;;;;;16.58;11.02;;;;;;;6.69;47.43;99900.09;5107388;28;20051;-38
2023/04/07 01:13:04;;;;;;;16.88;10.15;;;;;;;6.58;47.14;99903.31;5107220;28;20185;-40
2023/04/07 01:15:34;;;;;;;14.85;10.60;;;;;;;6.56;47.85;99889.41;5107232;28;20024;-39
2023/04/07 01:18:21;;;;;;;15.57;10.45;;;;;;;6.66;47.26;99903.16;5105914;28;20040;-42
2023/04/07 01:20:50;;;;;;;17.40;11.38;;;;;;;6.66;47.60;99889.91;5106957;28;20019;-41
2023/04/07 01:23:51;;;;;;;14.05;9.93;;;;;;;6.67;47.22;99890.72;5105952;28;20040;-39
2023/04/07 01:26:20;;;;;;;15.57;10.18;;;;;;;6.58;47.37;99887.41;5087061;28;20118;-40
2023/04/07 01:29:10;;;;;;;14.82;9.90;;;;;;;6.60;46.73;99888.03;5107456;28;20023;-39
2023/04/07 01:31:39;;;;;;;16.38;10.70;;;;;;;6.40;47.79;99880.00;5106875;28;20035;-40
2023/04/07 01:34:05;;;;;;;16.83;10.20;;;;;;;6.56;48.08;99900.00;5106726;28;20038;-40
2023/04/07 01:36:33;;;;;;;14.60;9.40;;;;;;;6.60;47.42;99885.38;5107075;28;20030;-39
2023/04/07 01:38:59;;;;;;;13.13;8.75;;;;;;;6.40;46.75;99882.63;5102116;28;20039;-41
2023/04/07 01:41:25;;;;;;;13.65;9.70;;;;;;;6.58;46.03;99898.00;5101975;28;20520;-38
2023/04/07 01:43:52;;;;;;;13.43;9.93;;;;;;;6.46;46.29;99895.09;5097380;28;20027;-40
2023/04/07 01:46:18;;;;;;;11.65;7.85;;;;;;;6.55;46.02;99901.03;5106711;27;20024;-40
2023/04/07 01:48:45;;;;;;;15.82;9.80;;;;;;;6.49;46.72;99897.34;5106555;28;20030;-42
2023/04/07 01:51:16;;;;;;;14.13;9.57;;;;;;;6.47;46.52;99903.84;5106507;28;20034;-41
2023/04/07 01:53:42;;;;;;;15.68;10.02;;;;;;;6.46;47.09;99904.84;5106415;28;20054;-39
2023/04/07 01:56:07;;;;;;;13.00;8.43;;;;;;;6.44;46.55;99905.88;5106532;28;20053;-40
2023/04/07 01:58:33;;;;;;;15.05;9.40;;;;;;;6.46;46.56;99904.84;5106456;28;20511;-41
2023/04/07 02:00:58;;;;;;;11.82;8.30;;;;;;;6.31;46.48;99911.09;5106147;27;20039;-41
2023/04/07 02:03:57;;;;;;;14.38;9.02;;;;;;;6.36;47.03;99902.59;5106009;28;20031;-39
2023/04/07 02:06:30;;;;;;;16.67;9.77;;;;;;;6.37;46.36;99875.06;5096705;28;20043;-40
2023/04/07 02:09:00;;;;;;;14.98;9.55;;;;;;;6.40;46.45;99903.81;5106179;28;20118;-40
2023/04/07 02:11:28;;;;;;;14.93;9.65;;;;;;;6.44;46.63;99903.22;5106054;28;20131;-40
2023/04/07 02:13:55;;;;;;;20.45;13.18;;;;;;;6.37;46.96;99904.19;5106281;28;20054;-40
2023/04/07 02:16:21;;;;;;;15.52;9.98;;;;;;;6.41;47.14;99908.91;5105574;28;20032;-39
2023/04/07 02:18:48;;;;;;;16.38;13.02;;;;;;;6.32;46.21;99894.19;5105349;28;20027;-40
2023/04/07 02:21:14;;;;;;;16.77;10.80;;;;;;;6.48;46.79;99894.88;5106339;28;20062;-40
2023/04/07 02:23:40;;;;;;;13.98;10.20;;;;;;;6.49;47.45;99901.81;5105981;28;20092;-40
2023/04/07 02:26:06;;;;;;;14.27;9.57;;;;;;;6.32;47.19;99907.44;5106047;28;20465;-39
2023/04/07 02:28:31;;;;;;;15.15;10.07;;;;;;;6.30;47.47;99904.16;5105176;28;20469;-39
2023/04/07 02:30:57;;;;;;;14.73;10.60;;;;;;;6.42;47.82;99904.44;5105957;28;20027;-39
2023/04/07 02:33:22;;;;;;;14.65;10.45;;;;;;;6.31;47.74;99911.09;5105668;28;20489;-39
2023/04/07 02:35:48;;;;;;;16.98;9.38;;;;;;;6.32;47.60;99904.78;5104957;28;20092;-41
2023/04/07 02:38:13;;;;;;;12.25;9.38;;;;;;;6.34;48.07;99907.25;5105812;28;20164;-40
2023/04/07 02:40:38;;;;;;;13.43;8.50;;;;;;;6.26;47.14;99902.94;5105227;28;20397;-40
2023/04/07 02:43:04;;;;;;;16.90;10.35;;;;;;;6.32;48.17;99907.44;5105735;28;20630;-40
2023/04/07 02:45:30;;;;;;;15.75;9.30;;;;;;;6.18;47.38;99887.19;5105422;28;20473;-42
2023/04/07 02:47:55;;;;;;;14.82;9.68;;;;;;;6.29;48.50;99909.66;5105122;28;20089;-40
2023/04/07 02:50:21;;;;;;;15.82;9.93;;;;;;;6.38;47.62;99911.16;5105355;28;20118;-40
2023/04/07 02:52:46;;;;;;;14.27;8.80;;;;;;;6.18;48.59;99913.66;5105943;28;20416;-40
2023/04/07 02:55:12;;;;;;;16.33;9.98;;;;;;;6.22;48.88;99914.91;5105463;28;20023;-39
2023/04/07 02:57:37;;;;;;;14.43;9.35;;;;;;;6.22;47.97;99914.91;5104707;28;20340;-40
2023/04/07 03:00:03;;;;;;;14.13;8.68;;;;;;;5.98;48.41;99911.69;5105211;28;20084;-39
2023/04/07 03:02:28;;;;;;;12.30;8.95;;;;;;;5.96;48.23;99905.78;5101507;28;20037;-39
2023/04/07 03:04:54;;;;;;;15.55;9.45;;;;;;;5.96;48.48;99913.72;5104084;28;20444;-41
2023/04/07 03:07:19;;;;;;;14.27;9.60;;;;;;;5.89;48.69;99904.06;5105218;28;20035;-39
2023/04/07 03:09:45;;;;;;;15.20;9.68;;;;;;;5.94;48.47;99906.94;5105537;28;20034;-40
2023/04/07 03:12:11;;;;;;;13.55;9.18;;;;;;;5.98;49.09;99908.22;5105288;28;20541;-39
2023/04/07 03:14:36;;;;;;;14.80;9.10;;;;;;;5.96;49.50;99904.97;5105503;28;20108;-40
2023/04/07 03:17:02;;;;;;;13.68;9.45;;;;;;;5.92;49.33;99915.06;5105203;28;20227;-40
2023/04/07 03:19:28;;;;;;;15.40;9.75;;;;;;;5.87;49.18;99911.38;5104884;28;20027;-40
2023/04/07 03:21:53;;;;;;;14.57;9.38;;;;;;;5.86;49.52;99899.16;5105138;28;20027;-41
2023/04/07 03:24:18;;;;;;;15.15;10.10;;;;;;;5.79;50.08;99909.69;5104693;28;20136;-41
2023/04/07 03:26:44;;;;;;;14.10;9.52;;;;;;;5.70;49.40;99908.19;5105247;28;20464;-38
2023/04/07 03:29:10;;;;;;;35.00;19.13;;;;;;;5.83;49.41;99914.41;5107057;28;20403;-40
2023/04/07 03:31:36;;;;;;;21.13;12.50;;;;;;;5.86;48.64;99909.75;5109473;28;20106;-40
2023/04/07 03:34:03;;;;;;;28.02;20.90;;;;;;;5.90;49.58;99919.75;5108965;28;20027;-40
2023/04/07 03:36:28;;;;;;;15.07;10.60;;;;;;;5.73;48.96;99910.47;5108444;28;20038;-41
2023/04/07 03:38:54;;;;;;;13.68;8.52;;;;;;;5.66;49.58;99904.28;5109267;28;20019;-39
2023/04/07 03:41:19;;;;;;;15.07;10.30;;;;;;;5.83;49.53;99927.63;5109467;28;20023;-44
2023/04/07 03:43:45;;;;;;;13.55;8.82;;;;;;;5.80;48.81;99928.03;5109169;28;20023;-40
2023/04/07 03:46:11;;;;;;;14.38;9.50;;;;;;;5.83;48.58;99932.13;5108987;28;20024;-40
2023/04/07 03:48:36;;;;;;;17.00;9.10;;;;;;;5.66;49.86;99933.38;5108633;28;20035;-40
2023/04/07 03:51:02;;;;;;;15.43;9.77;;;;;;;5.72;49.16;99940.56;5109434;28;20020;-40
2023/04/07 03:53:27;;;;;;;14.80;9.40;;;;;;;5.85;49.08;99943.34;5108739;28;20024;-39
2023/04/07 03:55:53;;;;;;;14.10;10.18;;;;;;;5.85;48.56;99938.03;5108707;28;20027;-41
2023/04/07 03:58:18;;;;;;;14.68;9.68;;;;;;;5.84;49.05;99939.03;5108953;28;20104;-41
2023/04/07 04:00:43;;;;;;;15.13;9.35;;;;;;;5.92;48.05;99956.63;5108606;28;20388;-40
2023/04/07 04:03:09;;;;;;;13.88;8.52;;;;;;;5.90;48.24;99954.16;5108852;28;20415;-40
2023/04/07 04:05:35;;;;;;;13.60;8.95;;;;;;;5.92;47.92;99962.72;5108607;28;20035;-40
2023/04/07 04:08:00;;;;;;;13.70;9.00;;;;;;;5.84;49.27;99966.34;5108208;28;20058;-38
2023/04/07 04:10:26;;;;;;;15.82;9.57;;;;;;;5.88;48.98;99963.28;5108725;27;20023;-40
2023/04/07 04:12:51;;;;;;;14.27;9.23;;;;;;;5.95;49.19;99965.03;5108624;28;20027;-40
2023/04/07 04:15:17;;;;;;;17.55;10.32;;;;;;;5.79;49.55;99952.84;5108722;28;20566;-39
2023/04/07 04:17:42;;;;;;;15.95;9.13;;;;;;;5.92;48.65;99960.06;5108710;28;20095;-41
2023/04/07 04:20:08;;;;;;;16.42;10.63;;;;;;;5.96;49.43;99968.47;5107790;28;20083;-42
2023/04/07 04:22:34;;;;;;;16.33;10.63;;;;;;;5.95;49.78;99959.72;5109189;28;20024;-40
2023/04/07 04:25:00;;;;;;;17.20;10.30;;;;;;;6.07;49.35;99967.13;5108873;28;20062;-40
2023/04/07 04:27:26;;;;;;;16.42;10.35;;;;;;;6.02;48.91;99967.72;5108596;28;20123;-42
2023/04/07 04:29:52;;;;;;;16.33;10.52;;;;;;;6.16;49.23;99969.47;5109039;28;20051;-42
2023/04/07 04:32:18;;;;;;;15.63;10.25;;;;;;;6.06;51.25;99976.91;5108217;28;20522;-40
2023/04/07 04:34:43;;;;;;;17.70;13.32;;;;;;;6.08;53.64;99974.09;5108607;28;20024;-42
2023/04/07 04:37:09;;;;;;;15.77;11.27;;;;;;;5.98;55.01;99985.00;5107733;28;20027;-40
2023/04/07 04:39:35;;;;;;;17.58;11.35;;;;;;;6.13;55.95;99975.16;5108086;28;20035;-40
2023/04/07 04:42:00;;;;;;;24.10;12.60;;;;;;;6.12;53.56;99983.28;5107382;28;20110;-40
2023/04/07 04:44:26;;;;;;;16.23;10.55;;;;;;;6.11;53.69;99977.19;5108038;27;20024;-40
2023/04/07 04:46:51;;;;;;;14.63;10.25;;;;;;;5.81;52.61;99968.53;5108383;28;20495;-40
2023/04/07 04:49:17;;;;;;;15.02;10.27;;;;;;;5.90;53.22;99987.75;5107640;28;20024;-41
2023/04/07 04:51:44;;;;;;;17.52;11.73;;;;;;;5.99;51.90;99984.00;5108091;28;20027;-40
2023/04/07 04:54:09;;;;;;;14.90;9.32;;;;;;;5.91;52.11;99992.84;5107427;28;20020;-41
2023/04/07 04:56:35;;;;;;;17.42;10.50;;;;;;;5.98;51.55;99993.75;5106671;28;20050;-41
2023/04/07 04:59:02;;;;;;;14.70;10.68;;;;;;;6.13;50.76;99995.50;5107489;28;20020;-41
2023/04/07 05:01:27;;;;;;;16.70;9.90;;;;;;;6.12;50.32;99999.97;5107715;28;20051;-39
2023/04/07 05:03:53;;;;;;;16.83;10.65;;;;;;;6.20;51.18;99996.38;5095271;28;20063;-41
2023/04/07 05:06:18;;;;;;;15.40;9.65;;;;;;;6.32;51.04;99994.84;5103268;28;20039;-41
2023/04/07 05:08:43;;;;;;;13.52;9.88;;;;;;;6.25;51.34;99993.97;5102529;28;20027;-41
2023/04/07 05:11:10;;;;;;;15.15;10.68;;;;;;;6.37;50.51;100007.50;5094922;28;20028;-42
2023/04/07 05:13:36;;;;;;;16.98;10.35;;;;;;;6.18;50.63;100009.00;5087264;28;20031;-40
2023/04/07 05:16:01;;;;;;;17.63;11.00;;;;;;;6.12;51.32;99993.88;5092498;28;20023;-42
2023/04/07 05:18:26;;;;;;;17.63;11.65;;;;;;;6.13;51.21;100009.56;5107634;28;20039;-40
2023/04/07 05:20:52;;;;;;;16.70;11.50;;;;;;;6.24;51.54;100013.53;5099488;28;20484;-40
2023/04/07 05:23:17;;;;;;;18.70;11.90;;;;;;;6.39;51.09;100019.53;5107451;28;20439;-40
2023/04/07 05:25:43;;;;;;;16.88;10.32;;;;;;;6.47;51.44;100015.13;5107472;28;20235;-42
2023/04/07 05:28:08;;;;;;;17.08;11.50;;;;;;;6.41;51.45;100020.16;5107252;28;20416;-39
2023/04/07 05:30:34;;;;;;;21.27;12.07;;;;;;;6.52;51.79;100020.63;5107793;28;20076;-38
2023/04/07 05:32:59;;;;;;;16.23;10.90;;;;;;;6.43;51.09;100023.44;5107397;28;20023;-38
2023/04/07 05:35:24;;;;;;;15.80;11.57;;;;;;;6.24;52.85;100024.13;5107641;28;20397;-39
2023/04/07 05:37:50;;;;;;;14.32;10.55;;;;;;;6.33;52.77;100006.25;5106982;28;20027;-39
2023/04/07 05:40:16;;;;;;;16.80;11.60;;;;;;;6.56;52.89;100022.72;5107010;28;20028;-39
2023/04/07 05:42:41;;;;;;;15.80;10.63;;;;;;;6.55;50.74;100020.28;5107183;28;20024;-39
2023/04/07 05:45:08;;;;;;;18.20;11.60;;;;;;;6.86;51.17;100032.28;5107286;28;20804;-39
2023/04/07 05:47:33;;;;;;;16.13;11.18;;;;;;;6.80;51.55;100029.41;5106755;28;20035;-39
2023/04/07 05:49:59;;;;;;;17.60;12.23;;;;;;;6.88;50.42;100035.56;5107142;28;20507;-40
2023/04/07 05:52:25;;;;;;;16.65;10.55;;;;;;;6.97;50.45;100027.25;5107082;28;20020;-37
2023/04/07 05:54:50;;;;;;;15.88;10.40;;;;;;;6.92;49.42;100020.91;5106820;28;20038;-40
2023/04/07 05:57:16;;;;;;;17.65;11.35;;;;;;;7.17;49.35;100035.31;5106665;28;20023;-40
2023/04/07 05:59:41;;;;;;;15.65;10.80;;;;;;;7.12;50.00;100035.06;5106366;28;20059;-39
2023/04/07 06:02:06;;;;;;;16.75;11.48;;;;;;;7.23;49.49;100033.69;5106316;28;20052;-39
2023/04/07 06:04:34;;;;;;;16.92;11.07;;;;;;;7.44;50.21;100030.13;5106275;28;20063;-42
2023/04/07 06:07:00;;;;;;;17.30;11.23;;;;;;;7.61;51.13;100036.69;5105920;28;20065;-42
2023/04/07 06:09:25;;;;;;;15.05;11.80;;;;;;;7.59;49.43;100037.91;5101528;28;20480;-41
2023/04/07 06:11:51;;;;;;;16.15;10.55;;;;;;;7.83;48.13;100033.88;5105675;28;20031;-41
2023/04/07 06:14:17;;;;;;;16.00;11.13;;;;;;;7.72;48.03;100042.41;5106085;28;20031;-40
2023/04/07 06:16:42;;;;;;;15.82;10.70;;;;;;;7.72;47.70;100026.50;5105318;28;20019;-40
2023/04/07 06:19:08;;;;;;;16.85;10.38;;;;;;;7.65;48.19;100043.22;5106237;28;20024;-40
2023/04/07 06:21:33;;;;;;;15.82;10.60;;;;;;;7.58;47.01;100042.41;5105381;28;20028;-40
2023/04/07 06:23:59;;;;;;;15.38;10.93;;;;;;;7.76;47.34;100047.13;5105329;28;20027;-42
2023/04/07 06:26:26;;;;;;;16.30;11.18;;;;;;;7.79;46.13;100049.41;5105689;28;20028;-40
2023/04/07 06:28:51;;;;;;;16.08;10.55;;;;;;;7.88;48.08;100046.56;5106164;28;20059;-41
2023/04/07 06:31:17;;;;;;;15.77;10.20;;;;;;;8.08;47.11;100049.25;5106279;28;20117;-42
2023/04/07 06:33:43;;;;;;;15.57;10.43;;;;;;;8.36;46.44;100049.06;5106641;28;20489;-40
2023/04/07 06:36:09;;;;;;;14.13;9.82;;;;;;;8.23;45.39;100055.16;5105833;28;20404;-42
2023/04/07 06:38:35;;;;;;;15.75;10.63;;;;;;;8.32;46.86;100063.78;5106502;28;20034;-42
2023/04/07 06:41:00;;;;;;;16.83;10.90;;;;;;;8.52;46.14;100064.63;5105855;28;20114;-42
2023/04/07 06:43:25;;;;;;;15.48;10.13;;;;;;;8.48;45.69;100057.25;5105800;28;20027;-41
2023/04/07 06:45:51;;;;;;;16.08;9.98;;;;;;;8.45;44.75;100053.16;5106153;28;20048;-40
2023/04/07 06:48:16;;;;;;;17.15;10.63;;;;;;;8.53;45.36;100049.47;5105697;28;20035;-41
2023/04/07 06:50:46;;;;;;;17.70;10.93;;;;;;;8.74;45.45;100067.84;5106654;28;20034;-42
2023/04/07 06:53:11;;;;;;;15.55;10.18;;;;;;;8.85;44.15;100075.22;5106503;28;20024;-41
2023/04/07 06:55:36;;;;;;;15.60;10.77;;;;;;;8.64;44.86;100084.25;5106434;28;20419;-41
2023/04/07 06:58:02;;;;;;;18.15;11.38;;;;;;;8.82;44.11;100082.78;5106209;28;20026;-41
2023/04/07 07:00:29;;;;;;;16.88;10.93;;;;;;;8.53;43.54;100081.38;5106224;28;20484;-41
2023/04/07 07:02:55;;;;;;;27.77;14.57;;;;;;;8.73;45.83;100082.19;5106095;28;20031;-40
2023/04/07 07:05:22;;;;;;;16.00;10.40;;;;;;;8.98;44.38;100081.53;5105755;28;20052;-40
2023/04/07 07:07:48;;;;;;;13.88;10.32;;;;;;;9.19;42.63;100085.75;5102278;28;20016;-40
2023/04/07 07:10:13;;;;;;;13.23;9.48;;;;;;;9.02;41.77;100080.91;5100201;28;20019;-40
2023/04/07 07:12:39;;;;;;;12.55;8.80;;;;;;;9.30;41.95;100081.66;5106335;28;20034;-40
2023/04/07 07:15:05;;;;;;;14.45;10.00;;;;;;;9.72;43.66;100087.41;5106460;27;20733;-39
2023/04/07 07:17:31;;;;;;;15.48;10.02;;;;;;;9.69;40.84;100098.50;5105824;28;20026;-41
2023/04/07 07:19:56;;;;;;;14.60;9.30;;;;;;;9.81;41.96;100097.63;5106023;28;20032;-38
2023/04/07 07:22:21;;;;;;;15.20;9.57;;;;;;;9.62;41.48;100091.38;5106185;28;20023;-39
2023/04/07 07:24:47;;;;;;;13.75;9.43;;;;;;;9.94;40.43;100107.38;5106169;28;20023;-40
2023/04/07 07:27:12;;;;;;;12.13;7.80;;;;;;;9.83;39.00;100105.41;5105765;28;20027;-41
2023/04/07 07:29:38;;;;;;;14.65;9.20;;;;;;;9.61;39.92;100088.91;5105905;28;20027;-38
2023/04/07 07:32:03;;;;;;;12.55;7.88;;;;;;;9.72;37.98;100096.22;5106066;28;20023;-40
2023/04/07 07:34:29;;;;;;;12.77;9.02;;;;;;;9.56;39.97;100099.34;5106124;28;20024;-40
2023/04/07 07:36:54;;;;;;;12.43;8.38;;;;;;;10.11;41.25;100102.34;5106063;28;20031;-40
2023/04/07 07:39:20;;;;;;;12.05;8.68;;;;;;;10.16;40.97;100083.06;5105686;28;20466;-40
2023/04/07 07:41:45;;;;;;;16.15;10.18;;;;;;;10.63;38.22;100096.88;5105994;28;20028;-40
2023/04/07 07:44:11;;;;;;;13.40;8.27;;;;;;;10.71;37.85;100104.59;5105908;28;20012;-39
2023/04/07 07:46:36;;;;;;;14.93;9.13;;;;;;;11.08;38.64;100102.00;5106185;28;20031;-40
2023/04/07 07:49:04;;;;;;;14.90;8.70;;;;;;;10.83;38.40;100108.19;5105796;28;20016;-40
2023/04/07 07:51:29;;;;;;;12.47;7.90;;;;;;;10.71;37.81;100104.59;5106053;28;20423;-37
2023/04/07 07:53:55;;;;;;;12.32;7.97;;;;;;;10.74;36.24;100114.00;5105659;28;20506;-40
2023/04/07 07:56:20;;;;;;;13.90;8.90;;;;;;;11.17;37.12;100102.53;5106331;28;20034;-39
2023/04/07 07:58:46;;;;;;;16.77;9.80;;;;;;;11.06;38.52;100112.88;5105919;28;20035;-39
2023/04/07 08:01:11;;;;;;;14.40;8.57;;;;;;;11.38;36.38;100103.91;5106085;28;20027;-40
2023/04/07 08:03:37;;;;;;;11.20;7.70;;;;;;;11.50;35.43;100110.16;5105524;28;20012;-40
2023/04/07 08:06:02;;;;;;;12.63;7.50;;;;;;;11.53;34.79;100107.03;5105750;28;20048;-38
2023/04/07 08:08:28;;;;;;;12.27;8.38;;;;;;;11.31;37.34;100093.31;5106015;28;20036;-39
2023/04/07 08:10:53;;;;;;;10.90;7.65;;;;;;;11.54;36.64;100107.84;5105774;28;20023;-39
2023/04/07 08:13:19;;;;;;;12.23;7.95;;;;;;;11.60;38.16;100102.41;5106096;28;20031;-40
2023/04/07 08:15:44;;;;;;;11.57;7.85;;;;;;;11.97;37.06;100107.75;5106646;28;20512;-39
2023/04/07 08:18:10;;;;;;;11.95;7.80;;;;;;;12.16;34.99;100108.50;5109513;28;20023;-39
2023/04/07 08:20:35;;;;;;;13.43;7.95;;;;;;;12.45;36.85;100103.34;5109293;28;20027;-39
2023/04/07 08:23:01;;;;;;;12.85;7.10;;;;;;;12.32;34.08;100104.38;5109657;28;20035;-39
2023/04/07 08:25:27;;;;;;;12.75;7.70;;;;;;;12.38;33.55;100099.94;5109389;28;20051;-39
2023/04/07 08:27:53;;;;;;;14.60;10.52;;;;;;;12.93;34.22;100104.16;5109208;28;20034;-39
2023/04/07 08:30:20;;;;;;;11.50;7.55;;;;;;;12.68;33.48;100091.03;5109316;27;20024;-37
2023/04/07 08:32:45;;;;;;;12.30;7.35;;;;;;;12.93;33.72;100085.44;5109295;28;20038;-39
2023/04/07 08:35:11;;;;;;;9.35;7.00;;;;;;;13.49;32.79;100108.09;5109130;28;20031;-39
2023/04/07 08:37:38;;;;;;;10.52;6.82;;;;;;;13.66;31.71;100105.47;5108974;28;20082;-38
2023/04/07 08:40:04;;;;;;;21.75;17.33;;;;;;;13.93;31.12;100100.34;5109028;27;20034;-37
2023/04/07 08:42:32;;;;;;;10.80;8.05;;;;;;;13.81;32.36;100103.09;5108895;28;20020;-40
2023/04/07 08:45:03;;;;;;;29.88;26.83;;;;;;;14.22;30.47;100108.38;5108845;27;20031;-40
2023/04/07 08:47:32;;;;;;;11.10;7.78;;;;;;;13.70;30.83;100092.41;5108570;28;20035;-40
2023/04/07 08:50:02;;;;;;;14.02;9.20;;;;;;;14.07;32.14;100092.81;5108567;28;20072;-39
2023/04/07 08:52:40;;;;;;;12.80;7.82;;;;;;;14.07;33.14;100095.50;5109293;28;20024;-38
2023/04/07 08:55:07;;;;;;;9.75;6.28;;;;;;;13.79;30.67;100101.69;5108915;27;20027;-40
2023/04/07 08:57:33;;;;;;;9.52;6.57;;;;;;;13.58;32.79;100101.28;5108615;28;20023;-42
2023/04/07 09:00:09;;;;;;;9.07;6.97;;;;;;;13.75;31.99;100105.91;5108796;28;20107;-39
2023/04/07 09:02:42;;;;;;;10.50;6.68;;;;;;;13.82;33.25;100087.81;5108372;28;20388;-46
2023/04/07 09:05:08;;;;;;;9.95;6.30;;;;;;;13.90;30.21;100094.69;5108283;28;20864;-37
2023/04/07 09:07:36;;;;;;;11.23;6.90;;;;;;;13.99;30.40;100098.59;5108004;28;20088;-39
2023/04/07 09:10:02;;;;;;;10.93;6.93;;;;;;;14.44;28.91;100098.56;5102647;28;20036;-38
2023/04/07 09:12:29;;;;;;;9.18;6.60;;;;;;;14.28;29.04;100099.34;5102958;28;20012;-37
2023/04/07 09:14:54;;;;;;;10.73;6.80;;;;;;;14.24;32.27;100091.00;5107841;28;20057;-39
2023/04/07 09:17:20;;;;;;;9.73;6.53;;;;;;;14.36;28.78;100096.28;5107800;28;20020;-38
2023/04/07 09:19:48;;;;;;;10.77;7.35;;;;;;;14.37;31.37;100097.91;5107480;28;20099;-39
2023/04/07 09:22:14;;;;;;;11.80;7.40;;;;;;;13.69;30.51;100091.63;5106683;28;20028;-39
2023/04/07 09:24:41;;;;;;;9.55;6.40;;;;;;;13.42;30.71;100083.28;5103073;27;20084;-39
2023/04/07 09:27:10;;;;;;;20.92;13.30;;;;;;;13.33;32.68;100088.22;5089338;28;20086;-37
2023/04/07 09:29:36;;;;;;;14.15;7.55;;;;;;;13.25;31.83;100092.03;5086698;28;20476;-38
2023/04/07 09:32:02;;;;;;;9.18;6.57;;;;;;;13.24;32.25;100084.25;5087404;28;20028;-39
2023/04/07 09:34:30;;;;;;;15.32;8.23;;;;;;;13.42;33.04;100091.31;5087827;28;20031;-37
2023/04/07 09:36:56;;;;;;;13.85;8.18;;;;;;;14.17;31.71;100086.84;5087402;28;20028;-39
2023/04/07 09:39:22;;;;;;;11.48;7.30;;;;;;;14.53;30.60;100085.56;5087801;28;20496;-37
2023/04/07 09:41:48;;;;;;;9.32;6.43;;;;;;;14.30;30.14;100065.06;5087485;28;20561;-37
2023/04/07 09:44:13;;;;;;;10.98;6.13;;;;;;;14.73;30.53;100081.56;5087376;28;20496;-39
2023/04/07 09:46:56;;;;;;;10.73;6.97;;;;;;;14.60;29.30;100091.59;5087412;28;20024;-36
2023/04/07 09:49:25;;;;;;;9.88;6.13;;;;;;;14.89;28.78;100090.69;5087464;28;20032;-37
2023/04/07 09:52:03;;;;;;;9.95;6.47;;;;;;;15.22;30.55;100089.78;5087190;28;20020;-38
2023/04/07 09:54:35;;;;;;;10.13;6.43;;;;;;;15.04;29.00;100085.53;5087441;28;20031;-40
2023/04/07 09:57:05;;;;;;;9.25;6.40;;;;;;;15.59;29.18;100091.84;5087230;28;20090;-38
2023/04/07 09:59:32;;;;;;;10.02;6.90;;;;;;;14.82;31.03;100078.25;5086987;28;20039;-41
2023/04/07 10:01:59;;;;;;;9.30;6.80;;;;;;;14.85;28.46;100077.75;5087344;28;20028;-39
2023/04/07 10:04:26;;;;;;;11.50;6.68;;;;;;;14.76;30.67;100078.41;5087268;28;20545;-38
2023/04/07 10:06:55;;;;;;;11.77;7.53;;;;;;;14.77;29.91;100078.19;5086685;28;20098;-39
2023/04/07 10:09:23;;;;;;;10.35;6.93;;;;;;;15.41;31.22;100066.13;5087005;28;20111;-38
2023/04/07 10:11:53;;;;;;;10.90;6.55;;;;;;;15.31;28.83;100085.63;5086826;28;20030;-38
2023/04/07 10:14:20;;;;;;;10.27;6.25;;;;;;;15.37;27.82;100075.75;5087294;28;20040;-39
2023/04/07 10:16:47;;;;;;;11.75;6.75;;;;;;;15.01;29.67;100075.28;5086858;28;20024;-41
2023/04/07 10:19:13;;;;;;;11.23;7.63;;;;;;;15.32;30.67;100072.97;5087071;28;20070;-36
2023/04/07 10:21:41;;;;;;;9.15;6.47;;;;;;;15.62;29.04;100076.03;5089870;28;20044;-37
2023/04/07 10:24:19;;;;;;;10.70;6.20;;;;;;;16.13;27.24;100085.72;5106451;27;20749;-36
2023/04/07 10:26:49;;;;;;;9.65;6.50;;;;;;;16.36;30.11;100055.78;5106282;27;20067;-37
2023/04/07 10:29:16;;;;;;;9.90;6.70;;;;;;;16.24;27.81;100074.81;5107086;28;20401;-40
2023/04/07 10:31:43;;;;;;;10.48;6.28;;;;;;;15.20;29.48;100079.31;5107055;28;20058;-37
2023/04/07 10:34:08;;;;;;;9.77;6.60;;;;;;;14.93;31.52;100070.31;5106473;28;20055;-37
2023/04/07 10:36:34;;;;;;;15.98;7.13;;;;;;;15.18;29.89;100072.53;5106803;28;20066;-37
2023/04/07 10:39:05;;;;;;;14.75;7.10;;;;;;;15.69;31.15;100075.81;5105438;27;20044;-37
2023/04/07 10:41:39;;;;;;;11.38;6.80;;;;;;;15.85;31.14;100063.38;5106456;28;20073;-37
2023/04/07 10:44:06;;;;;;;10.50;6.72;;;;;;;16.21;28.44;100061.03;5106686;28;20016;-38
2023/04/07 10:46:44;;;;;;;8.98;6.47;;;;;;;16.63;28.06;100074.56;5106187;28;20058;-37
2023/04/07 10:49:12;;;;;;;8.52;6.15;;;;;;;15.85;28.38;100074.16;5106756;27;20089;-37
2023/04/07 10:51:38;;;;;;;9.32;6.70;;;;;;;16.33;29.22;100072.44;5106280;28;20104;-36
2023/04/07 10:54:19;;;;;;;10.40;6.30;;;;;;;16.99;27.82;100057.84;5106703;28;20032;-37
2023/04/07 10:57:14;;;;;;;9.13;6.30;;;;;;;17.79;28.03;100079.16;5106557;28;20508;-40
2023/04/07 11:00:01;;;;;;;9.52;6.50;;;;;;;18.13;27.20;100079.53;5097764;28;20496;-38
2023/04/07 11:02:26;;;;;;;9.35;6.70;;;;;;;18.78;25.97;100079.75;5106224;28;20030;-38
2023/04/07 11:04:52;;;;;;;9.07;6.78;;;;;;;18.26;26.98;100078.16;5106184;28;20036;-37
2023/04/07 11:07:18;;;;;;;9.98;6.47;;;;;;;17.75;27.34;100078.06;5106244;27;20147;-37
2023/04/07 11:09:45;;;;;;;9.15;6.55;;;;;;;17.59;26.08;100075.34;5106120;28;20040;-37
2023/04/07 11:12:30;;;;;;;10.63;7.05;;;;;;;16.74;28.32;100070.06;5106450;28;20065;-41
2023/04/07 11:14:55;;;;;;;9.38;6.63;;;;;;;16.57;27.89;100064.00;5106350;28;20027;-37
2023/04/07 11:17:21;;;;;;;9.57;6.40;;;;;;;16.22;27.65;100057.28;5105156;28;20030;-38
2023/04/07 11:19:53;;;;;;;9.50;6.43;;;;;;;15.99;29.77;100069.19;5105939;27;20116;-41
2023/04/07 11:22:19;;;;;;;9.95;6.65;;;;;;;16.63;29.10;100068.34;5106163;27;20024;-42
2023/04/07 11:24:47;;;;;;;10.48;6.43;;;;;;;16.86;27.51;100065.31;5098842;27;20020;-36